X

Important NEWS



New Hub Active

Miami is our new hub! Old members can request transfer via hr@dlxairways.net

Thank you very much and have nice flight.


Deluxe Airways.

X

Tours



Hello again, we created one nice test tour for all pilots to attend. also this is ment to be testing of our tour system

Available Tours

If you find some issues please inform us.

Thank you very much and have nice flight.


Deluxe Airways.

 METAR AND TAF INFORMATION
ArrayMETAR FOR LOWW
16783343 6 LOWW 250650Z 20006KT 140V240 9999 -RA FEW012 BKN110 19/17 Q1022 TEMPO SHRA LOWW 2019-08-25T06:50:00Z 48.12 16.57 19.0 17.0 200 6 6.21 30.177166 -RA VFR METAR 190.0 LOWW 250620Z 18003KT 120V230 9999 FEW030 FEW050CB BKN074 19/17 Q1022 TEMPO SHRA LOWW 2019-08-25T06:20:00Z 48.12 16.57 19.0 17.0 180 3 6.21 30.177166 VFR METAR 190.0 LOWW 250550Z 22005KT 9999 FEW033 FEW050CB SCT070 BKN100 19/17 Q1021 RERA TEMPO SHRA LOWW 2019-08-25T05:50:00Z 48.12 16.57 19.0 17.0 220 5 6.21 30.147638 VFR METAR 190.0 LOWW 250520Z 18003KT 150V210 7000 SHRA FEW028 FEW050CB BKN065 18/17 Q1021 NOSIG LOWW 2019-08-25T05:20:00Z 48.12 16.57 18.0 17.0 180 3 4.35 30.147638 TRUE SHRA MVFR METAR 190.0

 AIRPORT MAP

 RUNWAY INFORMATION
Runway 11 Runway length 11483 ft Runway width 148 ft
Runway elevation 575 ft Runway displaced threshold 0 ft Runway heading 116
Runway 29 Runway length 11483 ft Runway width 148 ft
Runway elevation 600 ft Runway displaced threshold 0 ft Runway heading 296
Runway 16 Runway length 11811 ft Runway width 148 ft
Runway elevation 597 ft Runway displaced threshold 2953 ft Runway heading 164
Runway 34 Runway length 11811 ft Runway width 148 ft
Runway elevation 586 ft Runway displaced threshold 0 ft Runway heading 344

 AIRPORT FREQUENCIES
Type APP Name WIEN RADAR Frequency 128.2 MHZ
Type ATIS Name ATIS Frequency 121.725 MHZ
Type CLD Name WIEN CLNC Frequency 122.125 MHZ
Type DIR Name DIRECTOR Frequency 119.8 MHZ
Type GND Name WIEN GND Frequency 121.6 MHZ
Type INFO Name INFO Frequency 118.525 MHZ
Type RMP Name VIENNA ICE Frequency 131.625 MHZ
Type TWR Name WIEN TWR Frequency 119.4 MHZ

 AIRPORT NEAR NAVIGATION AIDS
Type NDB Name Bruck Frequency 408 KHZ
Type VOR-DME Name Fischamend Frequency 110400 KHZ
Type VOR-DME Name Sollenau Frequency 115500 KHZ
Type NDB Name Steinhof Frequency 293 KHZ
Type VOR-DME Name Wagram Frequency 112200 KHZ
Type NDB Name Schwechat Frequency 303 KHZ



Powered by Virtual Airlines Manager [v2.6.2]

Template code change by DeluxeAir